Change the Weather History Date:

Thursday, January 24, 2013

  Actual Average (KCFV) Record (KCFV)
Temperature  
Mean Temperature 30 °F -  
Max Temperature 35 °F 43 °F 66 °F (2012)
Min Temperature 26 °F 23 °F 3 °F (2014)
Degree Days  
Heating Degree Days 34    
Moisture  
Dew Point 18 °F    
Average Humidity 59    
Maximum Humidity 69    
Minimum Humidity 51    
Precipitation  
Precipitation 0.00 in - - ()
Sea Level Pressure  
Sea Level Pressure 30.28 in    
Wind  
Wind Speed 15 mph (NE)    
Max Wind Speed 22 mph    
Max Gust Speed 26 mph    
Visibility 10 miles    
Events      
Averages and records for this station are not official NWS values.
T = Trace of Precipitation, MM = Missing Value Source: NWS Daily Summary

Daily Weather History Graph

Daily Weather History Graph

Search for Another Location

Airport or City:

Trip Planner

Search our weather history database for the weather conditions in past years. The results will help you decide how hot, cold, wet, or windy it might be!

Date:

Astronomy

Jan. 24, 2013 Rise Set
Actual Time 7:31 AM CST 5:39 PM CST
Civil Twilight 7:03 AM CST 6:07 PM CST
Nautical Twilight 6:32 AM CST 6:38 PM CST
Astronomical Twilight 6:01 AM CST 7:09 PM CST
Moon 3:43 PM CST (1/24) 5:28 AM CST (1/24)
Length of Visible Light 11h 03m
Length of Day
10h 08m
Waxing Gibbous, 94% of the Moon is Illuminated
Jan 24
Waxing Gibbous
Jan 26
Full
Feb 3
Last Quarter
Feb 10
New
Feb 17
First Quarter

Hourly Weather History & Observations

Time (CST) Temp. Windchill Dew Point Humidity Pressure Visibility Wind Dir Wind Speed Gust Speed Precip Events Conditions
12:15 AM 35.6 °F 26.2 °F 23.0 °F 60% 30.32 in 10.0 mi NNE 15.0 mph - N/A   Clear
12:35 AM 33.8 °F 22.8 °F 23.0 °F 65% 30.32 in 10.0 mi NNE 18.4 mph - N/A   Clear
12:55 AM 33.8 °F 24.3 °F 23.0 °F 65% 30.32 in 10.0 mi NNE 13.8 mph 20.7 mph N/A   Mostly Cloudy
1:15 AM 33.8 °F 23.2 °F 23.0 °F 65% 30.32 in 10.0 mi NE 17.3 mph 21.9 mph N/A   Scattered Clouds
1:35 AM 33.8 °F 24.3 °F 21.2 °F 60% 30.32 in 10.0 mi NE 13.8 mph - N/A   Mostly Cloudy
1:55 AM 33.8 °F 23.2 °F 21.2 °F 60% 30.34 in 10.0 mi NE 17.3 mph - N/A   Overcast
2:15 AM 32.0 °F 20.1 °F 19.4 °F 60% 30.33 in 10.0 mi NE 19.6 mph 24.2 mph N/A   Overcast
2:35 AM 32.0 °F 19.5 °F 19.4 °F 60% 30.34 in 10.0 mi NE 21.9 mph 25.3 mph N/A   Overcast
2:55 AM 32.0 °F 20.1 °F 19.4 °F 60% 30.34 in 10.0 mi NE 19.6 mph - N/A   Overcast
3:15 AM 32.0 °F 19.8 °F 17.6 °F 55% 30.35 in 10.0 mi NE 20.7 mph 26.5 mph N/A   Overcast
3:35 AM 32.0 °F 21.2 °F 17.6 °F 55% 30.34 in 10.0 mi NE 16.1 mph 26.5 mph N/A   Overcast
3:55 AM 32.0 °F 20.8 °F 15.8 °F 51% 30.34 in 10.0 mi NE 17.3 mph 24.2 mph N/A   Overcast
4:15 AM 30.2 °F 18.1 °F 14.0 °F 51% 30.34 in 10.0 mi NE 18.4 mph - N/A   Overcast
4:35 AM 30.2 °F 17.4 °F 14.0 °F 51% 30.35 in 10.0 mi NE 20.7 mph 24.2 mph N/A   Overcast
4:55 AM 30.2 °F 17.4 °F 14.0 °F 51% 30.35 in 10.0 mi NE 20.7 mph 24.2 mph N/A   Overcast
5:15 AM 30.2 °F 19.8 °F 14.0 °F 51% 30.35 in 10.0 mi NE 13.8 mph 25.3 mph N/A   Overcast
5:35 AM 30.2 °F 18.9 °F 15.8 °F 55% 30.35 in 10.0 mi NE 16.1 mph - N/A   Overcast
5:55 AM 28.4 °F 17.0 °F 15.8 °F 59% 30.35 in 10.0 mi NE 15.0 mph - N/A   Overcast
6:15 AM 28.4 °F 15.1 °F 14.0 °F 55% 30.35 in 10.0 mi NE 20.7 mph 25.3 mph N/A   Overcast
6:35 AM 28.4 °F 15.8 °F 15.8 °F 59% 30.35 in 10.0 mi NE 18.4 mph - N/A   Overcast
6:55 AM 28.4 °F 16.6 °F 15.8 °F 59% 30.35 in 10.0 mi NE 16.1 mph - N/A   Overcast
7:15 AM 26.6 °F 13.4 °F 15.8 °F 64% 30.34 in 10.0 mi ENE 18.4 mph 23.0 mph N/A   Overcast
7:35 AM 26.6 °F 13.4 °F 15.8 °F 64% 30.34 in 10.0 mi NE 18.4 mph - N/A   Overcast
7:55 AM 26.6 °F 14.7 °F 15.8 °F 64% 30.34 in 10.0 mi NE 15.0 mph 20.7 mph N/A   Overcast
8:15 AM 26.6 °F 14.3 °F 15.8 °F 64% 30.36 in 10.0 mi NE 16.1 mph - N/A   Overcast
8:35 AM 26.6 °F 13.1 °F 14.0 °F 59% 30.37 in 10.0 mi NE 19.6 mph 24.2 mph N/A   Overcast
8:55 AM 26.6 °F 13.4 °F 15.8 °F 64% 30.36 in 10.0 mi NE 18.4 mph - N/A   Overcast
9:15 AM 26.6 °F 13.4 °F 14.0 °F 59% 30.35 in 10.0 mi NE 18.4 mph - N/A   Overcast
9:35 AM 26.6 °F 14.3 °F 14.0 °F 59% 30.35 in 10.0 mi ENE 16.1 mph - N/A   Overcast
9:55 AM 28.4 °F 16.2 °F 15.8 °F 59% 30.35 in 10.0 mi ENE 17.3 mph - N/A   Overcast
10:15 AM 28.4 °F 16.6 °F 14.0 °F 55% 30.35 in 10.0 mi ENE 16.1 mph - N/A   Overcast
10:35 AM 28.4 °F 17.0 °F 14.0 °F 55% 30.35 in 10.0 mi ENE 15.0 mph - N/A   Overcast
10:55 AM 28.4 °F 18.0 °F 14.0 °F 55% 30.36 in 10.0 mi ENE 12.7 mph - N/A   Overcast
11:15 AM 28.4 °F 16.2 °F 14.0 °F 55% 30.36 in 10.0 mi NE 17.3 mph - N/A   Overcast
11:35 AM 28.4 °F 16.6 °F 14.0 °F 55% 30.35 in 10.0 mi NE 16.1 mph - N/A   Overcast
11:55 AM 28.4 °F 15.8 °F 14.0 °F 55% 30.34 in 10.0 mi NE 18.4 mph - N/A   Overcast
12:15 PM 28.4 °F 15.8 °F 14.0 °F 55% 30.34 in 10.0 mi NE 18.4 mph - N/A   Overcast
12:35 PM 30.2 °F 18.9 °F 14.0 °F 51% 30.32 in 10.0 mi NE 16.1 mph - N/A   Overcast
12:55 PM 30.2 °F 19.3 °F 14.0 °F 51% 30.30 in 10.0 mi NE 15.0 mph - N/A   Overcast
1:15 PM 30.2 °F 21.3 °F 14.0 °F 51% 30.29 in 10.0 mi NE 10.4 mph - N/A   Overcast
1:35 PM 30.2 °F 20.2 °F 17.6 °F 60% 30.27 in 10.0 mi ENE 12.7 mph - N/A   Overcast
1:55 PM 32.0 °F 22.5 °F 17.6 °F 55% 30.24 in 10.0 mi ENE 12.7 mph - N/A   Overcast
2:15 PM 32.0 °F 22.5 °F 19.4 °F 60% 30.23 in 10.0 mi ENE 12.7 mph 19.6 mph N/A   Overcast
2:35 PM 32.0 °F 22.5 °F 19.4 °F 60% 30.23 in 10.0 mi ENE 12.7 mph - N/A   Overcast
2:55 PM 32.0 °F 22.5 °F 21.2 °F 64% 30.23 in 10.0 mi East 12.7 mph - N/A   Overcast
3:15 PM 32.0 °F 24.2 °F 21.2 °F 64% 30.23 in 10.0 mi East 9.2 mph - N/A   Overcast
5:15 PM 32.0 °F 23.6 °F 23.0 °F 69% 30.19 in 10.0 mi NE 10.4 mph - N/A   Overcast
5:35 PM 32.0 °F 24.8 °F 23.0 °F 69% 30.18 in 10.0 mi NE 8.1 mph - N/A   Overcast
5:55 PM 32.0 °F 23.6 °F 23.0 °F 69% 30.15 in 10.0 mi ENE 10.4 mph - N/A   Overcast
6:15 PM 32.0 °F 24.8 °F 23.0 °F 69% 30.14 in 10.0 mi ENE 8.1 mph - N/A   Overcast
6:35 PM 32.0 °F 26.4 °F 21.2 °F 64% 30.15 in 10.0 mi NE 5.8 mph - N/A   Overcast
6:55 PM 32.0 °F 25.6 °F 21.2 °F 64% 30.17 in 10.0 mi North 6.9 mph - N/A   Overcast
7:15 PM 32.0 °F 25.6 °F 21.2 °F 64% 30.17 in 10.0 mi North 6.9 mph - N/A   Overcast
7:35 PM 32.0 °F 24.2 °F 21.2 °F 64% 30.17 in 10.0 mi North 9.2 mph - N/A   Overcast
7:55 PM 32.0 °F 25.6 °F 19.4 °F 60% 30.16 in 10.0 mi North 6.9 mph - N/A   Overcast
8:15 PM 32.0 °F 26.4 °F 19.4 °F 60% 30.15 in 10.0 mi NNE 5.8 mph - N/A   Overcast
8:35 PM 32.0 °F 27.5 °F 19.4 °F 60% 30.15 in 10.0 mi North 4.6 mph - N/A   Overcast
8:55 PM 32.0 °F - 19.4 °F 60% 30.16 in 10.0 mi Calm Calm - N/A   Overcast
9:15 PM 32.0 °F 26.4 °F 19.4 °F 60% 30.16 in 10.0 mi NNW 5.8 mph - N/A   Overcast
9:35 PM 32.0 °F 26.4 °F 19.4 °F 60% 30.15 in 10.0 mi North 5.8 mph - N/A   Overcast
10:15 PM 32.0 °F 25.6 °F 21.2 °F 64% 30.16 in 10.0 mi NNW 6.9 mph - N/A   Overcast
10:35 PM 32.0 °F 25.6 °F 19.4 °F 60% 30.16 in 10.0 mi NNW 6.9 mph - N/A   Overcast
10:55 PM 32.0 °F 25.6 °F 19.4 °F 60% 30.17 in 10.0 mi NNW 6.9 mph - N/A   Overcast
11:15 PM 32.0 °F 25.6 °F 19.4 °F 60% 30.16 in 10.0 mi North 6.9 mph - N/A   Overcast
11:35 PM 32.0 °F 24.8 °F 19.4 °F 60% 30.15 in 10.0 mi NNW 8.1 mph - N/A   Overcast
11:55 PM 32.0 °F 25.6 °F 19.4 °F 60% 30.15 in 10.0 mi NNW 6.9 mph - N/A   Overcast